Wrightstown, NJ (08562)

11:26 AM EST on December 18, 2014 (GMT -0500)
Jacobstown | Change Station
CLOSE
Current Station
Personal Weather Station
Location: Wrightstown, NJ
Elevation: 141 ft
Nearby Weather Stations

Elev 141 ft 40.08 °N, 74.56 °W | Updated 6 minutes ago

Overcast
Overcast
36.0 °F
Feels Like 26 °F
N
16.8
Wind Variable Wind from West
Gusts 17.4 mph

Today
High -- | Low -- °F
--% Chance of Precip.
Yesterday
High -- | Low -- °F
Precip. -- in
7:15 AM 4:34 PM
Waning Crescent, 13% visible
Pressure 30.04 in
Visibility 10.0 miles
Clouds Overcast 4000 ft
Windchill 26 °F
Dew Point 21 °F
Humidity 55%
Rainfall 0.00 in
Snow Depth Not available.
UV 1 out of 12
Pollen .10 out of 12
Air Quality Not available.
Flu Activity Not available.
METAR KWRI 181558Z AUTO 30014G19KT 10SM OVC040 04/M06 A3003 RMK AO2 SLP173 T00361060

More Conditions Fewer Conditions

Pressure 30.04 in
Visibility 10.0 miles
Clouds Overcast 4000 ft
Windchill 26 °F
Dew Point 21 °F
Humidity 55%
Rainfall 0.00 in
Snow Depth Not available.
UV 1 out of 12
Pollen .10 out of 12
Air Quality Not available.
Flu Activity Not available.
METAR KWRI 181558Z AUTO 30014G19KT 10SM OVC040 04/M06 A3003 RMK AO2 SLP173 T00361060

More Conditions Fewer Conditions

10-Day Weather Forecast

Almanac

Astronomy

Dec. 18, 2014 Rise Set
Actual Time
Civil Twilight
Nautical Twilight
Astronomical Twilight
Moon
Length of Visible Light
Length of Day
Tomorrow will be .
, % of the Moon is Illuminated

Today's Extremes

State Highs State Lows

Community

WunderPhotos

Upload Photos

1,778,955 photos uploaded!

WunderBlogs® & News

Nearby

Air Quality

  Air Quality AQ Index Pollutant
Not available.

Snow Depth

Station Depth Elevation

Earthquake Activity

City Distance Mag. Time & Date
Minimum magnitude displayed is 2.5.

Coastal Water Temperatures

Place Temperature

Nearby Weather Stations